K2WX

Buffalo Airport

Buffalo, South Dakota, USA
METAR K2WX 201556Z AUTO 14003KT 08/M03 A3034 RMK AO1 SLP285 T00781028
Observed Flight Rules
Oct-20 @ 15:56 UTC (an hour ago)
Wind
140° at 3 knots
Temperatures Readings
Current 8°C / 46°F
Dewpoint -3°C / 27°F
Humidity 46%
Altimeter 30.34" Hg
Pressure 1028.5 hPa
Elevation 915
METAR K2WX 201556Z AUTO 14003KT 08/M03 A3034 RMK AO1 SLP285 T00781028
Observed Flight Rules
Oct-20 @ 15:56 UTC
(an hour ago)
Wind
140° at 3 knots
Temperature Dewpoint
8°C / 46°F -3°C / 27°F
Humidity Altimeter Pressure
46% 30.34" Hg 1028.5 hPa